Time;durP1;ratioP1;P1;durP2;ratioP2;P2;SDS_P1;SDS_P2;PMS_P1;PMS_P2;Temp;Humidity;BMP_temperature;BMP_pressure;BME280_temperature;BME280_humidity;BME280_pressure;Samples;Min_cycle;Max_cycle;Signal;HPM_P1;HPM_P2
2023/08/06 00:02:13;;;;;;;2.10;1.20;;;14.60;99.90;;;;;;5073152;28;20192;-68
2023/08/06 00:04:39;;;;;;;2.03;1.17;;;14.50;99.90;;;;;;5079520;28;20188;-68
2023/08/06 00:07:05;;;;;;;2.47;1.23;;;14.40;99.90;;;;;;5086190;28;20563;-68
2023/08/06 00:09:30;;;;;;;2.60;1.20;;;14.30;99.90;;;;;;5090262;28;20184;-68
2023/08/06 00:11:56;;;;;;;3.90;1.40;;;14.20;99.90;;;;;;5088603;28;20251;-68
2023/08/06 00:14:22;;;;;;;7.20;1.40;;;14.20;99.90;;;;;;5083989;28;20187;-68
2023/08/06 00:16:47;;;;;;;2.40;1.17;;;14.20;99.90;;;;;;5088283;28;20540;-68
2023/08/06 00:19:13;;;;;;;1.90;1.20;;;14.10;99.90;;;;;;5090302;28;20184;-68
2023/08/06 00:21:39;;;;;;;3.30;1.10;;;14.10;99.90;;;;;;5090915;28;20194;-68
2023/08/06 00:24:04;;;;;;;2.90;1.70;;;14.00;99.90;;;;;;5083975;28;20183;-68
2023/08/06 00:26:30;;;;;;;3.07;1.30;;;14.10;99.90;;;;;;5085730;28;20253;-68
2023/08/06 00:28:55;;;;;;;2.87;1.50;;;14.10;99.90;;;;;;5087564;28;20181;-68
2023/08/06 00:31:21;;;;;;;3.10;1.40;;;14.20;99.90;;;;;;5091067;28;20212;-68
2023/08/06 00:33:47;;;;;;;2.00;1.10;;;14.10;99.90;;;;;;5089309;28;20180;-68
2023/08/06 00:36:12;;;;;;;2.47;1.50;;;14.10;99.90;;;;;;5089905;28;20180;-68
2023/08/06 00:38:38;;;;;;;2.90;1.73;;;14.10;99.90;;;;;;5089821;28;20275;-68
2023/08/06 00:41:03;;;;;;;2.80;1.77;;;14.00;99.90;;;;;;5090481;28;20793;-68
2023/08/06 00:43:29;;;;;;;3.33;1.50;;;14.10;99.90;;;;;;5088859;28;20188;-69
2023/08/06 00:45:55;;;;;;;2.60;1.30;;;14.00;99.90;;;;;;5090640;28;20324;-68
2023/08/06 00:48:21;;;;;;;3.00;1.47;;;13.90;99.90;;;;;;5091386;28;20203;-68
2023/08/06 00:50:47;;;;;;;5.07;2.30;;;13.80;99.90;;;;;;5093772;28;20450;-68
2023/08/06 00:53:13;;;;;;;4.50;1.60;;;13.80;99.90;;;;;;5093908;28;20188;-69
2023/08/06 00:55:39;;;;;;;3.53;1.47;;;13.80;99.90;;;;;;5094358;28;20415;-68
2023/08/06 00:58:05;;;;;;;1.97;1.27;;;13.80;99.90;;;;;;5094174;28;20768;-68
2023/08/06 01:00:31;;;;;;;2.83;1.47;;;13.70;99.90;;;;;;5090873;28;20589;-68
2023/08/06 01:02:56;;;;;;;1.90;1.10;;;13.70;99.90;;;;;;5094250;28;20436;-68
2023/08/06 01:05:23;;;;;;;3.10;1.50;;;13.70;99.90;;;;;;5093908;28;20188;-68
2023/08/06 01:08:19;;;;;;;3.30;2.00;;;13.70;99.90;;;;;;5091501;28;20200;-68
2023/08/06 01:10:53;;;;;;;5.00;2.00;;;13.70;99.90;;;;;;5087539;28;20448;-68
2023/08/06 01:13:37;;;;;;;2.90;1.73;;;13.70;99.90;;;;;;5075890;28;20410;-68
2023/08/06 01:16:05;;;;;;;2.43;1.60;;;13.70;99.90;;;;;;5093633;28;20425;-68
2023/08/06 01:18:31;;;;;;;2.83;1.50;;;13.60;99.90;;;;;;5094182;28;20417;-69
2023/08/06 01:20:57;;;;;;;2.43;1.50;;;13.60;99.90;;;;;;5092905;28;20866;-68
2023/08/06 01:23:23;;;;;;;3.50;1.70;;;13.60;99.90;;;;;;5093681;28;20463;-68
2023/08/06 01:25:56;;;;;;;2.90;1.60;;;13.60;99.90;;;;;;5093823;28;20212;-68
2023/08/06 01:28:44;;;;;;;3.80;1.30;;;13.50;99.90;;;;;;5092197;28;20422;-68
2023/08/06 01:31:21;;;;;;;2.63;1.63;;;13.50;99.90;;;;;;5075520;28;20414;-68
2023/08/06 01:33:49;;;;;;;2.60;1.20;;;13.40;99.90;;;;;;5088915;28;20459;-68
2023/08/06 01:36:18;;;;;;;4.63;1.50;;;13.40;99.90;;;;;;5092790;28;20422;-68
2023/08/06 01:38:43;;;;;;;4.77;1.03;;;13.40;99.90;;;;;;5093374;28;20461;-68
2023/08/06 01:41:09;;;;;;;3.60;1.67;;;13.50;99.90;;;;;;5090423;28;20458;-68
2023/08/06 01:43:34;;;;;;;2.87;1.50;;;13.40;99.90;;;;;;5092949;28;20192;-68
2023/08/06 01:46:00;;;;;;;3.60;1.47;;;13.30;99.90;;;;;;5093645;28;20290;-69
2023/08/06 01:48:26;;;;;;;2.70;1.43;;;13.30;99.90;;;;;;5094056;28;20184;-68
2023/08/06 01:50:51;;;;;;;2.00;1.00;;;13.30;99.90;;;;;;5080355;28;20703;-68
2023/08/06 01:53:17;;;;;;;10.80;1.37;;;13.30;99.90;;;;;;5093095;28;20177;-68
2023/08/06 01:55:47;;;;;;;5.50;1.37;;;13.30;99.90;;;;;;5092952;28;20201;-68
2023/08/06 01:58:12;;;;;;;4.80;1.30;;;13.30;99.90;;;;;;5092967;28;20310;-68
2023/08/06 02:00:38;;;;;;;4.30;1.67;;;13.40;99.90;;;;;;5092312;28;20423;-68
2023/08/06 02:03:04;;;;;;;2.67;1.47;;;13.30;99.90;;;;;;5092693;28;20724;-68
2023/08/06 02:05:29;;;;;;;3.93;1.60;;;13.30;99.90;;;;;;5092680;28;20259;-68
2023/08/06 02:07:55;;;;;;;2.40;1.40;;;13.20;99.90;;;;;;5090852;28;20215;-68
2023/08/06 02:10:20;;;;;;;2.13;0.97;;;13.30;99.90;;;;;;5087709;28;20610;-68
2023/08/06 02:12:46;;;;;;;3.30;1.47;;;13.30;99.90;;;;;;5091877;28;20180;-68
2023/08/06 02:15:11;;;;;;;1.77;1.00;;;13.40;99.90;;;;;;5085184;28;20193;-68
2023/08/06 02:17:37;;;;;;;8.17;1.90;;;13.20;99.90;;;;;;5092802;28;20263;-68
2023/08/06 02:20:03;;;;;;;1.93;1.20;;;13.20;99.90;;;;;;5093281;28;20184;-68
2023/08/06 02:22:28;;;;;;;4.27;1.40;;;13.10;99.90;;;;;;5092407;28;20212;-68
2023/08/06 02:24:54;;;;;;;1.90;1.07;;;13.10;99.90;;;;;;5090132;28;20526;-68
2023/08/06 02:27:19;;;;;;;2.53;1.37;;;13.10;99.90;;;;;;5092234;28;20269;-68
2023/08/06 02:29:45;;;;;;;7.63;1.33;;;13.00;99.90;;;;;;5092631;28;20185;-68
2023/08/06 02:32:11;;;;;;;3.00;1.27;;;13.10;99.90;;;;;;5092825;28;20221;-68
2023/08/06 02:34:36;;;;;;;2.03;0.90;;;13.00;99.90;;;;;;5091733;28;20256;-68
2023/08/06 02:37:02;;;;;;;3.00;1.40;;;13.10;99.90;;;;;;5085880;28;20184;-68
2023/08/06 02:39:27;;;;;;;1.90;1.00;;;13.20;99.90;;;;;;5091815;28;20200;-68
2023/08/06 02:41:53;;;;;;;3.30;1.20;;;13.20;99.90;;;;;;5091879;28;20192;-68
2023/08/06 02:44:19;;;;;;;2.53;1.23;;;13.30;99.90;;;;;;5078259;28;20215;-68
2023/08/06 02:46:45;;;;;;;5.23;1.10;;;13.30;99.90;;;;;;5089475;28;20249;-68
2023/08/06 02:49:10;;;;;;;3.63;1.33;;;13.30;99.90;;;;;;5091440;28;20246;-69
2023/08/06 02:51:36;;;;;;;2.00;1.10;;;13.40;99.90;;;;;;5085704;28;20438;-68
2023/08/06 02:54:02;;;;;;;2.50;1.10;;;13.40;99.90;;;;;;5091403;28;20179;-68
2023/08/06 02:56:27;;;;;;;3.50;1.73;;;13.50;99.90;;;;;;5088860;28;20191;-69
2023/08/06 02:58:53;;;;;;;3.53;1.77;;;13.50;99.90;;;;;;5091495;28;20199;-68
2023/08/06 03:01:18;;;;;;;2.73;1.00;;;13.60;99.90;;;;;;5091087;28;20572;-68
2023/08/06 03:03:44;;;;;;;8.40;1.47;;;13.50;99.90;;;;;;5085713;28;20188;-69
2023/08/06 03:06:10;;;;;;;3.10;1.37;;;13.60;99.90;;;;;;5091770;28;20287;-69
2023/08/06 03:08:35;;;;;;;2.03;1.00;;;13.60;99.90;;;;;;5089468;28;20177;-68
2023/08/06 03:11:01;;;;;;;5.07;1.53;;;13.60;99.90;;;;;;5090516;28;20185;-68
2023/08/06 03:13:27;;;;;;;2.93;1.50;;;13.50;99.90;;;;;;5084905;28;20215;-68
2023/08/06 03:15:58;;;;;;;2.50;1.10;;;13.50;99.90;;;;;;5081703;28;20199;-69
2023/08/06 03:18:23;;;;;;;3.07;1.30;;;13.60;99.90;;;;;;5086079;28;20414;-69
2023/08/06 03:20:49;;;;;;;6.70;1.10;;;13.60;99.90;;;;;;5090524;28;20922;-69
2023/08/06 03:23:15;;;;;;;3.40;1.60;;;13.60;99.90;;;;;;5071250;28;20651;-69
2023/08/06 03:25:41;;;;;;;2.80;1.20;;;13.50;99.90;;;;;;5084126;28;20659;-68
2023/08/06 03:28:06;;;;;;;3.53;1.10;;;13.60;99.90;;;;;;5084501;28;20469;-68
2023/08/06 03:30:32;;;;;;;3.60;1.33;;;13.50;99.90;;;;;;5091667;28;20235;-69
2023/08/06 03:32:57;;;;;;;5.63;1.47;;;13.50;99.90;;;;;;5087372;28;20177;-68
2023/08/06 03:35:23;;;;;;;2.63;1.13;;;13.60;99.90;;;;;;5090800;28;20569;-69
2023/08/06 03:37:49;;;;;;;2.33;1.37;;;13.50;99.90;;;;;;5085492;28;20238;-68
2023/08/06 03:40:15;;;;;;;3.60;1.10;;;13.50;99.90;;;;;;5074276;28;21044;-68
2023/08/06 03:42:41;;;;;;;3.50;1.70;;;13.50;99.90;;;;;;5087293;28;20505;-68
2023/08/06 03:45:07;;;;;;;4.43;1.50;;;13.60;99.90;;;;;;5083886;28;20180;-68
2023/08/06 03:47:33;;;;;;;2.10;1.20;;;13.50;99.90;;;;;;5090834;28;20214;-69
2023/08/06 03:49:58;;;;;;;3.30;1.20;;;13.50;99.90;;;;;;5078322;28;20411;-68
2023/08/06 03:52:24;;;;;;;2.87;1.10;;;13.60;99.90;;;;;;5090625;28;20177;-68
2023/08/06 03:54:49;;;;;;;1.97;1.20;;;13.50;99.90;;;;;;5090481;28;20181;-68
2023/08/06 03:57:15;;;;;;;5.33;1.23;;;13.50;99.90;;;;;;5090512;28;20222;-68
2023/08/06 03:59:41;;;;;;;1.80;1.20;;;13.50;99.90;;;;;;5091368;28;20322;-68
2023/08/06 04:02:07;;;;;;;1.87;1.10;;;13.60;99.90;;;;;;5088437;28;20181;-68
2023/08/06 04:04:32;;;;;;;1.77;1.00;;;13.60;99.90;;;;;;5085971;28;20583;-68
2023/08/06 04:06:58;;;;;;;3.77;1.40;;;13.60;99.90;;;;;;5088474;28;20284;-69
2023/08/06 04:09:24;;;;;;;2.57;1.27;;;13.50;99.90;;;;;;5088315;28;20188;-69
2023/08/06 04:11:49;;;;;;;1.60;0.80;;;13.40;99.90;;;;;;5090054;28;20184;-69
2023/08/06 04:14:15;;;;;;;2.50;1.50;;;13.30;99.90;;;;;;5081833;28;20250;-69
2023/08/06 04:16:40;;;;;;;1.67;0.73;;;13.30;99.90;;;;;;5084652;28;20197;-69
2023/08/06 04:19:06;;;;;;;2.37;1.50;;;13.20;99.90;;;;;;5083566;28;20267;-69
2023/08/06 04:21:31;;;;;;;13.47;1.27;;;13.20;99.90;;;;;;5089269;28;20176;-69
2023/08/06 04:23:57;;;;;;;3.20;1.17;;;13.20;99.90;;;;;;5089219;28;20188;-69
2023/08/06 04:26:23;;;;;;;2.07;1.17;;;13.20;99.90;;;;;;5090840;28;20213;-69
2023/08/06 04:28:48;;;;;;;1.90;0.90;;;13.20;99.90;;;;;;5085383;28;20246;-69
2023/08/06 04:31:14;;;;;;;2.77;1.30;;;13.20;99.90;;;;;;5090974;28;20176;-69
2023/08/06 04:33:40;;;;;;;1.83;0.70;;;13.20;99.90;;;;;;5090500;28;20172;-69
2023/08/06 04:36:07;;;;;;;5.00;0.80;;;13.10;99.90;;;;;;5083841;28;20176;-69
2023/08/06 04:38:32;;;;;;;2.57;0.90;;;13.10;99.90;;;;;;5087932;28;20188;-69
2023/08/06 04:40:58;;;;;;;5.93;1.20;;;13.10;99.90;;;;;;5090066;28;20429;-68
2023/08/06 04:43:24;;;;;;;3.30;1.50;;;13.10;99.90;;;;;;5089810;28;20700;-69
2023/08/06 04:45:51;;;;;;;2.90;1.10;;;13.00;99.90;;;;;;5090333;28;20199;-69
2023/08/06 04:48:17;;;;;;;1.60;0.80;;;13.00;99.90;;;;;;5085940;28;20188;-69
2023/08/06 04:50:46;;;;;;;3.33;1.00;;;13.00;99.90;;;;;;5083235;28;20978;-69
2023/08/06 04:53:12;;;;;;;2.30;1.00;;;13.00;99.90;;;;;;5086345;28;20415;-69
2023/08/06 04:55:38;;;;;;;4.23;1.37;;;12.90;99.90;;;;;;5088299;28;20969;-69
2023/08/06 04:58:04;;;;;;;8.63;1.50;;;13.00;99.90;;;;;;5087600;28;20454;-69
2023/08/06 05:00:30;;;;;;;1.67;1.03;;;13.00;99.90;;;;;;5090193;28;20219;-68
2023/08/06 05:02:56;;;;;;;2.20;1.03;;;13.00;99.90;;;;;;5090576;28;21063;-68
2023/08/06 05:05:21;;;;;;;2.70;1.27;;;13.00;99.90;;;;;;5087170;28;20248;-66
2023/08/06 05:07:49;;;;;;;1.40;0.70;;;13.10;99.90;;;;;;5087450;28;20553;-68
2023/08/06 05:10:16;;;;;;;1.83;0.73;;;13.10;99.90;;;;;;5077613;28;20189;-68
2023/08/06 05:12:41;;;;;;;1.70;0.93;;;13.20;99.90;;;;;;5076385;28;20426;-68
2023/08/06 05:15:07;;;;;;;2.17;0.90;;;13.10;99.90;;;;;;5079991;28;20441;-68
2023/08/06 05:17:33;;;;;;;2.67;1.00;;;13.20;99.90;;;;;;5077936;28;20243;-68
2023/08/06 05:19:59;;;;;;;1.70;0.70;;;13.30;99.90;;;;;;5084955;28;20431;-68
2023/08/06 05:22:25;;;;;;;2.60;0.80;;;13.30;99.90;;;;;;5080280;28;20418;-68
2023/08/06 05:24:51;;;;;;;2.30;0.90;;;13.40;99.90;;;;;;5086813;28;20200;-68
2023/08/06 05:27:18;;;;;;;5.43;1.07;;;13.60;99.90;;;;;;5084497;28;20213;-68
2023/08/06 05:29:44;;;;;;;2.07;0.90;;;13.60;99.90;;;;;;5080387;28;20169;-68
2023/08/06 05:32:10;;;;;;;2.00;0.70;;;13.60;99.90;;;;;;5084003;28;20450;-68
2023/08/06 05:34:36;;;;;;;2.80;1.07;;;13.60;99.90;;;;;;5104418;23;20471;-67
2023/08/06 05:37:02;;;;;;;2.80;0.67;;;13.60;99.90;;;;;;5099240;28;20543;-68
2023/08/06 05:39:28;;;;;;;1.93;0.80;;;13.60;99.90;;;;;;5096186;28;20274;-68
2023/08/06 05:41:54;;;;;;;3.20;0.73;;;13.70;99.90;;;;;;5094541;28;20579;-68
2023/08/06 05:44:23;;;;;;;2.03;0.63;;;13.70;99.90;;;;;;5095811;28;20228;-68
2023/08/06 05:46:49;;;;;;;2.47;0.70;;;13.70;99.90;;;;;;5102505;28;20471;-68
2023/08/06 05:49:15;;;;;;;1.50;0.80;;;13.60;99.90;;;;;;5101603;28;20459;-68
2023/08/06 05:51:41;;;;;;;2.60;0.63;;;13.50;99.90;;;;;;5098846;28;20906;-68
2023/08/06 05:54:07;;;;;;;2.80;0.90;;;13.50;99.90;;;;;;5079728;28;20610;-68
2023/08/06 05:56:33;;;;;;;1.40;0.50;;;13.50;99.90;;;;;;5095160;28;20441;-68
2023/08/06 05:58:58;;;;;;;4.50;0.80;;;13.50;99.90;;;;;;5100582;28;20192;-68
2023/08/06 06:01:24;;;;;;;1.43;0.60;;;13.50;99.90;;;;;;5090453;28;20762;-68
2023/08/06 06:03:49;;;;;;;2.13;1.00;;;13.50;99.90;;;;;;5088062;28;20187;-68
2023/08/06 06:06:16;;;;;;;4.73;0.87;;;13.40;99.90;;;;;;5112150;28;20272;-68
2023/08/06 06:08:42;;;;;;;2.23;1.10;;;13.40;99.90;;;;;;5084176;28;20507;-68
2023/08/06 06:11:07;;;;;;;1.97;0.60;;;13.40;99.90;;;;;;5089360;28;20460;-68
2023/08/06 06:13:33;;;;;;;1.70;0.80;;;13.40;99.90;;;;;;5092912;28;20292;-68
2023/08/06 06:15:58;;;;;;;1.30;0.60;;;13.40;99.90;;;;;;5096493;28;20188;-68
2023/08/06 06:18:24;;;;;;;1.90;0.90;;;13.50;99.90;;;;;;5076630;28;20200;-68
2023/08/06 06:20:49;;;;;;;1.43;0.77;;;13.60;99.90;;;;;;5086576;28;20188;-68
2023/08/06 06:23:15;;;;;;;1.37;0.73;;;13.60;99.90;;;;;;5082640;28;20184;-68
2023/08/06 06:25:48;;;;;;;6.40;0.70;;;13.50;99.90;;;;;;5091657;28;20832;-68
2023/08/06 06:28:13;;;;;;;2.27;1.00;;;13.50;99.90;;;;;;5083728;28;20208;-68
2023/08/06 06:30:40;;;;;;;1.50;0.67;;;13.50;99.90;;;;;;5065202;28;20423;-68
2023/08/06 06:33:06;;;;;;;3.10;0.87;;;13.50;99.90;;;;;;5084184;28;20260;-68
2023/08/06 06:35:32;;;;;;;3.73;0.77;;;13.60;99.90;;;;;;5079837;28;20804;-68
2023/08/06 06:37:57;;;;;;;1.43;0.70;;;13.70;99.90;;;;;;5075380;28;20185;-68
2023/08/06 06:40:23;;;;;;;1.90;0.77;;;13.50;99.90;;;;;;5073063;28;20216;-68
2023/08/06 06:42:48;;;;;;;1.90;0.73;;;13.50;99.90;;;;;;5085874;28;20189;-68
2023/08/06 06:45:14;;;;;;;1.83;1.00;;;13.50;99.90;;;;;;5095746;28;20200;-68
2023/08/06 06:47:40;;;;;;;1.50;0.80;;;13.40;99.90;;;;;;5086060;28;20220;-68
2023/08/06 06:50:06;;;;;;;3.83;0.80;;;13.40;99.90;;;;;;5089326;28;20177;-67
2023/08/06 06:52:31;;;;;;;3.00;1.03;;;13.30;99.90;;;;;;5089547;28;20535;-67
2023/08/06 06:54:57;;;;;;;1.20;0.50;;;13.30;99.90;;;;;;5101799;28;20421;-67
2023/08/06 06:57:22;;;;;;;1.20;0.60;;;13.30;99.90;;;;;;5079061;28;20176;-68
2023/08/06 06:59:48;;;;;;;3.33;0.60;;;13.20;99.90;;;;;;5089948;28;20291;-68
2023/08/06 07:02:14;;;;;;;1.63;0.57;;;13.10;99.90;;;;;;5084998;28;20601;-68
2023/08/06 07:04:39;;;;;;;1.93;0.60;;;13.00;99.90;;;;;;5084809;28;20215;-68
2023/08/06 07:07:05;;;;;;;1.13;0.50;;;13.20;99.90;;;;;;5075726;28;20638;-68
2023/08/06 07:09:30;;;;;;;1.40;0.60;;;13.30;99.90;;;;;;5078559;28;20189;-68
2023/08/06 07:11:56;;;;;;;1.30;0.50;;;13.30;99.90;;;;;;5073714;28;20676;-69
2023/08/06 07:14:25;;;;;;;1.10;0.50;;;13.30;99.90;;;;;;5081860;28;20279;-69
2023/08/06 07:16:51;;;;;;;3.57;0.60;;;13.20;99.90;;;;;;5075871;28;20199;-68
2023/08/06 07:19:16;;;;;;;1.20;0.60;;;13.20;99.90;;;;;;5091112;28;20435;-69
2023/08/06 07:21:42;;;;;;;1.10;0.40;;;13.20;99.90;;;;;;5082884;28;20487;-68
2023/08/06 07:24:07;;;;;;;1.40;0.60;;;13.10;99.90;;;;;;5103503;28;20180;-68
2023/08/06 07:26:33;;;;;;;1.20;0.50;;;13.10;99.90;;;;;;5092142;28;20291;-68
2023/08/06 07:28:59;;;;;;;1.60;0.50;;;13.20;99.90;;;;;;5076102;28;20192;-68
2023/08/06 07:31:25;;;;;;;1.10;0.50;;;13.20;99.90;;;;;;5079497;28;20549;-68
2023/08/06 07:33:51;;;;;;;1.97;0.70;;;13.20;99.90;;;;;;5086963;28;20184;-68
2023/08/06 07:36:16;;;;;;;1.20;0.50;;;13.20;99.90;;;;;;5077703;28;20443;-68
2023/08/06 07:38:42;;;;;;;1.30;0.50;;;13.20;99.90;;;;;;5071903;28;20704;-68
2023/08/06 07:41:08;;;;;;;1.20;0.50;;;13.20;99.90;;;;;;5085616;28;20205;-68
2023/08/06 07:43:35;;;;;;;1.10;0.40;;;13.20;99.90;;;;;;5093647;28;20680;-68
2023/08/06 07:46:01;;;;;;;1.10;0.40;;;13.20;99.90;;;;;;5102152;28;20995;-68
2023/08/06 07:48:27;;;;;;;1.20;0.50;;;13.20;99.90;;;;;;5083626;28;20502;-68
2023/08/06 07:50:54;;;;;;;2.00;0.50;;;13.20;99.90;;;;;;5083802;28;20510;-68
2023/08/06 07:53:26;;;;;;;1.10;0.50;;;13.20;99.90;;;;;;5080557;28;20413;-68
2023/08/06 07:55:53;;;;;;;1.43;0.53;;;13.30;99.90;;;;;;5088730;28;20416;-68
2023/08/06 07:58:20;;;;;;;1.27;0.50;;;13.60;99.90;;;;;;5092453;28;20406;-68
2023/08/06 08:00:46;;;;;;;1.10;0.40;;;13.60;99.90;;;;;;5100619;28;20410;-68
2023/08/06 08:03:16;;;;;;;1.10;0.40;;;13.50;99.90;;;;;;5089226;28;20780;-68
2023/08/06 08:05:43;;;;;;;1.20;0.50;;;13.60;99.90;;;;;;5071020;28;20415;-68
2023/08/06 08:08:08;;;;;;;1.10;0.40;;;13.60;99.90;;;;;;5074307;28;20884;-68
2023/08/06 08:10:34;;;;;;;2.37;0.60;;;13.80;99.90;;;;;;5081546;28;20422;-68
2023/08/06 08:13:01;;;;;;;1.20;0.50;;;13.80;99.90;;;;;;5071316;28;20173;-68
2023/08/06 08:15:28;;;;;;;1.40;0.60;;;13.60;99.90;;;;;;5075689;28;20785;-68
2023/08/06 08:17:54;;;;;;;1.10;0.40;;;13.60;99.90;;;;;;5076228;28;20475;-68
2023/08/06 08:20:20;;;;;;;1.87;0.50;;;13.50;99.90;;;;;;5080776;28;20429;-68
2023/08/06 08:22:45;;;;;;;1.30;0.50;;;13.60;99.90;;;;;;5079150;28;20587;-68
2023/08/06 08:25:11;;;;;;;1.10;0.40;;;13.60;99.90;;;;;;5070767;28;20427;-68
2023/08/06 08:27:37;;;;;;;1.10;0.40;;;13.50;99.90;;;;;;5082309;28;20226;-68
2023/08/06 08:30:02;;;;;;;1.10;0.40;;;13.50;99.90;;;;;;5080366;28;20208;-68
2023/08/06 08:32:28;;;;;;;1.10;0.40;;;13.60;99.90;;;;;;5077206;28;20570;-68
2023/08/06 08:34:54;;;;;;;1.37;0.50;;;13.60;99.90;;;;;;5079473;28;20238;-68
2023/08/06 08:37:19;;;;;;;1.30;0.60;;;13.70;99.90;;;;;;5087190;28;20536;-68
2023/08/06 08:39:45;;;;;;;1.10;0.40;;;13.70;99.90;;;;;;5085002;28;20208;-68
2023/08/06 08:42:10;;;;;;;2.30;1.00;;;13.50;99.90;;;;;;5078707;28;20189;-69
2023/08/06 08:44:39;;;;;;;1.97;0.60;;;13.60;99.90;;;;;;5099843;28;20191;-68
2023/08/06 08:47:12;;;;;;;1.10;0.40;;;13.70;99.90;;;;;;5074933;28;20251;-68
2023/08/06 08:49:38;;;;;;;1.80;0.60;;;13.60;99.90;;;;;;5098109;28;20753;-68
2023/08/06 08:52:10;;;;;;;1.10;0.40;;;13.70;99.90;;;;;;5085635;28;20444;-69
2023/08/06 08:54:38;;;;;;;1.20;0.50;;;13.90;99.90;;;;;;5081971;28;20459;-68
2023/08/06 08:57:04;;;;;;;1.10;0.40;;;14.00;99.90;;;;;;5074121;28;20426;-68
2023/08/06 08:59:31;;;;;;;1.10;0.50;;;14.00;99.90;;;;;;5091983;28;20410;-69
2023/08/06 09:02:00;;;;;;;1.43;0.60;;;14.00;99.90;;;;;;5055439;28;20450;-68
2023/08/06 09:04:28;;;;;;;1.10;0.40;;;14.40;99.90;;;;;;5054196;28;20781;-68
2023/08/06 09:06:56;;;;;;;1.20;0.40;;;15.00;99.90;;;;;;5079672;28;20454;-68
2023/08/06 09:09:37;;;;;;;1.80;0.60;;;15.50;99.90;;;;;;5077357;28;20437;-68
2023/08/06 09:12:11;;;;;;;1.20;0.50;;;15.60;99.90;;;;;;5082129;28;20426;-68
2023/08/06 09:14:37;;;;;;;1.20;0.50;;;15.60;99.90;;;;;;5089217;28;20550;-68
2023/08/06 09:17:05;;;;;;;1.37;0.57;;;15.50;99.90;;;;;;5095700;28;20936;-68
2023/08/06 09:19:31;;;;;;;1.20;0.40;;;15.60;99.90;;;;;;5087147;28;20507;-68
2023/08/06 09:21:57;;;;;;;1.20;0.40;;;15.90;99.90;;;;;;5074271;28;20426;-68
2023/08/06 09:24:23;;;;;;;1.20;0.50;;;16.10;99.90;;;;;;5088989;28;20418;-68
2023/08/06 09:26:49;;;;;;;1.40;0.50;;;16.40;99.90;;;;;;5087838;28;20199;-68
2023/08/06 09:29:15;;;;;;;1.20;0.40;;;16.60;99.90;;;;;;5078922;28;20177;-68
2023/08/06 09:31:46;;;;;;;6.60;0.60;;;16.20;99.90;;;;;;5089385;28;20991;-67
2023/08/06 09:34:18;;;;;;;1.30;0.53;;;15.80;99.90;;;;;;5077026;28;21065;-68
2023/08/06 09:36:52;;;;;;;1.20;0.50;;;15.50;99.90;;;;;;5078610;28;20435;-68
2023/08/06 09:39:19;;;;;;;1.20;0.40;;;15.20;99.90;;;;;;5084762;28;20420;-68
2023/08/06 09:41:48;;;;;;;1.23;0.47;;;15.20;99.90;;;;;;5087922;28;20421;-68
2023/08/06 09:44:23;;;;;;;1.20;0.40;;;15.20;99.90;;;;;;5089253;28;20422;-68
2023/08/06 09:46:53;;;;;;;1.20;0.40;;;15.30;99.90;;;;;;5086411;28;20460;-69
2023/08/06 09:49:21;;;;;;;2.40;0.50;;;15.00;99.90;;;;;;5073751;28;20527;-69
2023/08/06 09:51:50;;;;;;;1.17;0.40;;;14.80;99.90;;;;;;5084350;28;20418;-69
2023/08/06 09:54:18;;;;;;;1.30;0.40;;;14.40;99.90;;;;;;5087968;28;20429;-69
2023/08/06 09:56:43;;;;;;;1.20;0.40;;;14.20;99.90;;;;;;5089966;28;20419;-69
2023/08/06 09:59:10;;;;;;;1.30;0.50;;;14.10;99.90;;;;;;5084264;28;20543;-69
2023/08/06 10:01:37;;;;;;;1.10;0.50;;;14.00;99.90;;;;;;5073536;28;20245;-69
2023/08/06 10:04:04;;;;;;;1.10;0.40;;;13.90;99.90;;;;;;5073422;28;20423;-69
2023/08/06 10:06:33;;;;;;;1.60;0.50;;;13.90;99.90;;;;;;5086500;28;20468;-69
2023/08/06 10:08:59;;;;;;;1.10;0.40;;;13.90;99.90;;;;;;5105332;28;20425;-69
2023/08/06 10:11:28;;;;;;;1.10;0.40;;;13.90;99.90;;;;;;5095282;28;20504;-67
2023/08/06 10:13:58;;;;;;;1.30;0.47;;;14.00;99.90;;;;;;5078949;28;20189;-67
2023/08/06 10:16:24;;;;;;;1.30;0.50;;;14.00;99.90;;;;;;5101628;28;20472;-69
2023/08/06 10:18:51;;;;;;;1.17;0.40;;;14.10;99.90;;;;;;5082780;28;20419;-70
2023/08/06 10:21:16;;;;;;;2.40;0.50;;;14.20;99.90;;;;;;5075415;28;20418;-69
2023/08/06 10:23:42;;;;;;;1.10;0.40;;;14.10;99.90;;;;;;5082205;28;20435;-69
2023/08/06 10:26:08;;;;;;;1.10;0.50;;;14.20;99.90;;;;;;5079956;28;20274;-69
2023/08/06 10:28:36;;;;;;;1.10;0.40;;;14.20;99.90;;;;;;5102836;28;20647;-69
2023/08/06 10:31:01;;;;;;;1.10;0.50;;;14.30;99.90;;;;;;5085935;28;21322;-68
2023/08/06 10:33:44;;;;;;;2.10;0.60;;;14.20;99.90;;;;;;5087109;28;20421;-68
2023/08/06 10:36:10;;;;;;;1.10;0.40;;;14.30;99.90;;;;;;5078052;28;20192;-68
2023/08/06 10:38:47;;;;;;;1.30;0.60;;;14.30;99.90;;;;;;5083407;28;20455;-68
2023/08/06 10:41:23;;;;;;;2.17;0.67;;;14.20;99.90;;;;;;5091165;28;20743;-68
2023/08/06 10:43:49;;;;;;;1.10;0.40;;;14.10;99.90;;;;;;5094421;28;20762;-68
2023/08/06 10:46:27;;;;;;;1.10;0.40;;;14.10;99.90;;;;;;5087759;28;20456;-68
2023/08/06 10:48:53;;;;;;;1.10;0.40;;;14.10;99.90;;;;;;5082660;28;20667;-68
2023/08/06 10:51:18;;;;;;;1.10;0.50;;;14.10;99.90;;;;;;5089586;28;20457;-67
2023/08/06 10:53:45;;;;;;;1.20;0.50;;;14.00;99.90;;;;;;5091456;28;20215;-68
2023/08/06 10:56:16;;;;;;;1.30;0.50;;;14.00;99.90;;;;;;5083694;28;20173;-68
2023/08/06 10:58:42;;;;;;;1.10;0.40;;;14.00;99.90;;;;;;5096513;28;20434;-68
2023/08/06 11:01:08;;;;;;;1.40;0.60;;;14.00;99.90;;;;;;5082034;28;20430;-68
2023/08/06 11:03:34;;;;;;;1.50;0.53;;;14.10;99.90;;;;;;5073799;28;20419;-68
2023/08/06 11:06:00;;;;;;;1.10;0.50;;;14.20;99.90;;;;;;5076416;28;20538;-68
2023/08/06 11:08:32;;;;;;;2.03;0.60;;;14.20;99.90;;;;;;5078534;28;20181;-68
2023/08/06 11:11:09;;;;;;;1.20;0.60;;;14.20;99.90;;;;;;5083917;28;20430;-68
2023/08/06 11:13:34;;;;;;;1.40;0.40;;;14.20;99.90;;;;;;5053007;28;20427;-67
2023/08/06 11:16:00;;;;;;;1.47;0.57;;;14.10;99.90;;;;;;5080475;28;20422;-67
2023/08/06 11:18:26;;;;;;;1.10;0.50;;;14.20;99.90;;;;;;5072927;28;20276;-67
2023/08/06 11:20:51;;;;;;;1.10;0.40;;;14.20;99.90;;;;;;5091894;28;20272;-67
2023/08/06 11:23:18;;;;;;;1.20;0.50;;;14.20;99.90;;;;;;5099168;28;20735;-67
2023/08/06 11:25:46;;;;;;;1.40;0.50;;;14.30;99.90;;;;;;5087350;28;20223;-67
2023/08/06 11:28:12;;;;;;;1.10;0.40;;;14.30;99.90;;;;;;5078720;28;20818;-67
2023/08/06 11:30:38;;;;;;;1.20;0.50;;;14.40;99.90;;;;;;5079211;28;20485;-68
2023/08/06 11:33:09;;;;;;;1.50;0.60;;;14.50;99.90;;;;;;5081673;28;20474;-66
2023/08/06 11:35:36;;;;;;;1.40;0.60;;;14.50;99.90;;;;;;5079716;28;20295;-71
2023/08/06 11:38:01;;;;;;;1.50;0.50;;;14.50;99.90;;;;;;5078188;28;20416;-69
2023/08/06 11:40:27;;;;;;;1.20;0.50;;;14.50;99.90;;;;;;5079143;28;20428;-66
2023/08/06 11:42:52;;;;;;;1.13;0.40;;;14.50;99.90;;;;;;5090049;28;20193;-67
2023/08/06 11:45:23;;;;;;;1.20;0.50;;;14.60;99.90;;;;;;5099468;28;20183;-67
2023/08/06 11:47:52;;;;;;;1.17;0.50;;;14.70;99.90;;;;;;5085076;28;20296;-68
2023/08/06 11:50:24;;;;;;;1.77;0.60;;;14.70;99.90;;;;;;5088317;28;20964;-67
2023/08/06 11:52:54;;;;;;;1.30;0.40;;;14.80;99.90;;;;;;5085045;28;20428;-68
2023/08/06 11:55:23;;;;;;;1.40;0.60;;;14.80;99.90;;;;;;5077141;28;20446;-68
2023/08/06 11:57:49;;;;;;;1.20;0.50;;;14.90;99.90;;;;;;5082265;28;20434;-69
2023/08/06 12:00:17;;;;;;;1.40;0.60;;;14.90;99.90;;;;;;5089374;28;20427;-67
2023/08/06 12:02:44;;;;;;;1.40;0.50;;;14.90;99.90;;;;;;5081538;28;20330;-68
2023/08/06 12:05:18;;;;;;;2.70;0.73;;;14.80;99.90;;;;;;5071345;28;20448;-68
2023/08/06 12:07:48;;;;;;;1.20;0.50;;;14.80;99.90;;;;;;5076517;28;20454;-68
2023/08/06 12:10:15;;;;;;;1.13;0.40;;;14.70;99.90;;;;;;5083705;28;20464;-68
2023/08/06 12:12:40;;;;;;;1.87;0.70;;;14.50;99.90;;;;;;5073227;28;20431;-67
2023/08/06 12:15:08;;;;;;;1.83;0.60;;;14.40;99.90;;;;;;5081773;28;20973;-68
2023/08/06 12:17:33;;;;;;;1.60;0.60;;;14.20;99.90;;;;;;5070679;28;20188;-68
2023/08/06 12:19:59;;;;;;;1.87;0.60;;;14.20;99.90;;;;;;5091401;28;20919;-68
2023/08/06 12:22:25;;;;;;;1.63;0.73;;;14.20;99.90;;;;;;5077665;28;20185;-68
2023/08/06 12:24:51;;;;;;;1.30;0.50;;;14.20;99.90;;;;;;5070981;28;20195;-68
2023/08/06 12:27:17;;;;;;;2.43;0.90;;;14.40;99.90;;;;;;5070617;28;20296;-68
2023/08/06 12:29:47;;;;;;;1.47;0.67;;;14.50;99.90;;;;;;5082259;28;20226;-67
2023/08/06 12:32:14;;;;;;;3.53;0.60;;;14.50;99.90;;;;;;5080147;28;20431;-68
2023/08/06 12:34:40;;;;;;;2.07;0.60;;;14.60;99.90;;;;;;5083526;28;20502;-68
2023/08/06 12:37:09;;;;;;;2.53;0.90;;;14.50;99.90;;;;;;5070355;28;20431;-68
2023/08/06 12:39:36;;;;;;;1.87;0.80;;;14.50;99.90;;;;;;5078891;28;20523;-68
2023/08/06 12:42:03;;;;;;;1.33;0.57;;;14.60;99.90;;;;;;5075360;28;20917;-68
2023/08/06 12:44:29;;;;;;;1.50;0.67;;;14.60;99.90;;;;;;5074430;28;20419;-68
2023/08/06 12:46:55;;;;;;;2.40;1.07;;;14.70;99.90;;;;;;5071333;28;20505;-69